createdAt,value
2019-02-05T00:02:00.681Z,35.45
2019-02-05T00:04:29.949Z,36.52
2019-02-05T00:06:59.180Z,34.58
2019-02-05T00:09:28.445Z,30.95
2019-02-05T00:11:57.752Z,33.85
2019-02-05T00:14:28.840Z,32.20
2019-02-05T00:16:58.092Z,35.10
2019-02-05T00:19:27.336Z,31.70
2019-02-05T00:21:58.400Z,36.48
2019-02-05T00:24:27.613Z,36.30
2019-02-05T00:26:56.872Z,32.13
2019-02-05T00:29:26.051Z,36.68
2019-02-05T00:31:55.319Z,31.23
2019-02-05T00:34:24.645Z,40.15
2019-02-05T00:36:53.873Z,33.98
2019-02-05T00:39:23.049Z,34.90
2019-02-05T00:41:52.381Z,38.60
2019-02-05T00:44:21.590Z,34.78
2019-02-05T00:46:50.837Z,35.56
2019-02-05T00:49:20.027Z,37.88
2019-02-05T00:51:49.276Z,41.23
2019-02-05T00:54:18.522Z,42.33
2019-02-05T00:56:47.826Z,35.83
2019-02-05T00:59:17.003Z,40.15
2019-02-05T01:01:46.250Z,43.45
2019-02-05T01:04:15.579Z,43.58
2019-02-05T01:06:44.755Z,39.75
2019-02-05T01:09:14.131Z,47.55
2019-02-05T01:11:43.461Z,43.85
2019-02-05T01:14:12.715Z,45.58
2019-02-05T01:16:41.947Z,40.25
2019-02-05T01:19:11.211Z,45.45
2019-02-05T01:21:40.411Z,46.37
2019-02-05T01:24:09.711Z,44.55
2019-02-05T01:26:39.433Z,47.38
2019-02-05T01:29:08.659Z,46.58
2019-02-05T01:31:37.906Z,47.03
2019-02-05T01:34:07.092Z,46.23
2019-02-05T01:36:36.311Z,47.55
2019-02-05T01:39:06.894Z,44.77
2019-02-05T01:41:36.504Z,48.77
2019-02-05T01:44:05.933Z,53.92
2019-02-05T01:46:35.178Z,56.20
2019-02-05T01:49:04.407Z,51.65
2019-02-05T01:51:33.581Z,51.58
2019-02-05T01:54:02.861Z,55.60
2019-02-05T01:56:40.416Z,49.35
2019-02-05T01:59:03.303Z,59.03
2019-02-05T02:01:32.494Z,53.48
2019-02-05T02:04:01.674Z,58.98
2019-02-05T02:06:30.978Z,59.00
2019-02-05T02:09:00.202Z,60.48
2019-02-05T02:11:29.828Z,61.35
2019-02-05T02:13:59.172Z,59.70
2019-02-05T02:16:28.362Z,56.28
2019-02-05T02:18:57.684Z,54.70
2019-02-05T02:21:26.886Z,60.30
2019-02-05T02:23:56.337Z,57.90
2019-02-05T02:26:25.892Z,59.40
2019-02-05T02:28:55.138Z,57.98
2019-02-05T02:31:24.441Z,57.35
2019-02-05T02:33:53.668Z,61.35
2019-02-05T02:36:25.930Z,65.30
2019-02-05T02:38:55.167Z,59.45
2019-02-05T02:41:24.488Z,67.10
2019-02-05T02:43:53.752Z,67.00
2019-02-05T02:46:23.024Z,58.85
2019-02-05T02:48:52.267Z,58.28
2019-02-05T02:51:21.471Z,55.75
2019-02-05T02:53:50.729Z,70.03
2019-02-05T02:56:19.974Z,55.80
2019-02-05T02:58:49.275Z,69.90
2019-02-05T03:01:18.463Z,65.32
2019-02-05T03:03:47.750Z,64.15
2019-02-05T03:06:16.989Z,64.62
2019-02-05T03:08:46.263Z,64.27
2019-02-05T03:11:17.509Z,60.17
2019-02-05T03:13:46.720Z,52.67
2019-02-05T03:16:15.997Z,65.22
2019-02-05T03:18:45.243Z,66.50
2019-02-05T03:21:16.227Z,63.23
2019-02-05T03:23:45.477Z,61.28
2019-02-05T03:26:14.727Z,67.17
2019-02-05T03:28:44.291Z,68.05
2019-02-05T03:31:13.553Z,68.10
2019-02-05T03:33:42.845Z,69.03
2019-02-05T03:36:12.080Z,66.90
2019-02-05T03:38:41.350Z,71.37
2019-02-05T03:41:10.629Z,63.77
2019-02-05T03:43:39.886Z,70.70
2019-02-05T03:46:09.218Z,72.42
2019-02-05T03:48:42.290Z,71.02
2019-02-05T03:51:14.830Z,73.37
2019-02-05T03:54:02.438Z,69.06
2019-02-05T03:56:46.797Z,75.78
2019-02-05T03:59:37.020Z,68.63
2019-02-05T04:02:29.124Z,79.47
2019-02-05T04:05:04.278Z,71.60
2019-02-05T04:07:54.799Z,73.10
2019-02-05T04:10:50.152Z,77.83
2019-02-05T04:13:45.372Z,74.50
2019-02-05T04:16:34.132Z,77.15
2019-02-05T04:19:13.464Z,84.50
2019-02-05T04:24:48.796Z,122.67
2019-02-05T04:27:43.713Z,92.60
2019-02-05T04:30:25.699Z,87.30
2019-02-05T04:33:00.621Z,79.10
2019-02-05T04:35:45.226Z,80.55
2019-02-05T04:38:29.543Z,86.43
2019-02-05T04:41:07.784Z,88.87
2019-02-05T04:43:58.337Z,88.78
2019-02-05T04:46:37.786Z,86.84
2019-02-05T04:49:24.401Z,88.10
2019-02-05T04:52:23.805Z,81.65
2019-02-05T04:58:03.857Z,97.78
2019-02-05T05:01:07.915Z,85.40
2019-02-05T05:04:01.384Z,82.67
2019-02-05T05:06:42.810Z,97.92
2019-02-05T05:09:16.292Z,88.35
2019-02-05T05:11:45.543Z,93.52
2019-02-05T05:14:14.792Z,92.62
2019-02-05T05:16:45.662Z,98.27
2019-02-05T05:19:14.929Z,90.83
2019-02-05T05:21:44.386Z,85.97
2019-02-05T05:24:13.634Z,90.85
2019-02-05T05:26:42.879Z,100.40
2019-02-05T05:29:12.177Z,92.97
2019-02-05T05:31:41.461Z,92.20
2019-02-05T05:34:10.732Z,95.28
2019-02-05T05:36:46.139Z,97.33
2019-02-05T05:39:15.376Z,99.20
2019-02-05T05:41:44.561Z,90.65
2019-02-05T05:44:13.816Z,98.20
2019-02-05T05:46:43.085Z,103.47
2019-02-05T05:49:12.350Z,100.97
2019-02-05T05:51:41.982Z,100.65
2019-02-05T05:54:11.158Z,111.50
2019-02-05T05:56:42.397Z,96.17
2019-02-05T05:59:11.718Z,114.27
2019-02-05T06:01:41.119Z,98.55
2019-02-05T06:04:10.385Z,102.63
2019-02-05T06:06:41.562Z,102.75
2019-02-05T06:09:10.850Z,107.33
2019-02-05T06:11:40.030Z,110.25
2019-02-05T06:14:09.309Z,111.80
2019-02-05T06:16:39.941Z,119.13
2019-02-05T06:19:09.121Z,110.85
2019-02-05T06:21:38.391Z,103.40
2019-02-05T06:24:07.669Z,112.72
2019-02-05T06:26:36.930Z,112.15
2019-02-05T06:29:06.225Z,105.03
2019-02-05T06:31:35.437Z,120.13
2019-02-05T06:34:05.615Z,102.17
2019-02-05T06:36:35.137Z,106.37
2019-02-05T06:39:07.351Z,110.60
2019-02-05T06:41:37.107Z,120.90
2019-02-05T06:44:06.488Z,114.42
2019-02-05T06:46:35.735Z,107.15
2019-02-05T06:49:05.310Z,111.10
2019-02-05T06:51:34.498Z,109.17
2019-02-05T06:54:04.079Z,111.62
2019-02-05T06:56:33.256Z,120.75
2019-02-05T06:59:02.474Z,113.17
2019-02-05T07:01:31.738Z,103.67
2019-02-05T07:04:01.017Z,119.33
2019-02-05T07:06:30.297Z,122.47
2019-02-05T07:08:59.579Z,117.62
2019-02-05T07:11:28.881Z,116.08
2019-02-05T07:13:58.350Z,122.53
2019-02-05T07:16:27.634Z,116.97
2019-02-05T07:18:56.985Z,112.00
2019-02-05T07:21:26.455Z,119.77
2019-02-05T07:23:55.787Z,114.70
2019-02-05T07:26:25.352Z,111.03
2019-02-05T07:28:58.785Z,113.92
2019-02-05T07:31:25.637Z,126.73
2019-02-05T07:33:54.967Z,118.97
2019-02-05T07:36:24.350Z,129.35
2019-02-05T07:38:53.707Z,129.87
2019-02-05T07:41:23.317Z,131.00
2019-02-05T07:43:52.780Z,119.35
2019-02-05T07:46:22.054Z,117.30
2019-02-05T07:48:51.358Z,136.62
2019-02-05T07:51:20.760Z,126.95
2019-02-05T07:53:50.072Z,130.85
2019-02-05T07:56:19.360Z,129.07
2019-02-05T07:58:48.655Z,134.60
2019-02-05T08:01:22.371Z,131.03
2019-02-05T08:03:52.367Z,142.95
2019-02-05T08:06:21.682Z,127.45
2019-02-05T08:08:50.969Z,135.00
2019-02-05T08:11:20.241Z,143.83
2019-02-05T08:13:49.538Z,138.80
2019-02-05T08:16:19.215Z,121.72
2019-02-05T08:18:48.625Z,131.82
2019-02-05T08:21:17.897Z,121.33
2019-02-05T08:23:47.252Z,137.62
2019-02-05T08:26:16.564Z,127.70
2019-02-05T08:28:45.903Z,153.68
2019-02-05T08:31:15.173Z,128.13
2019-02-05T08:33:44.476Z,124.27
2019-02-05T08:36:13.763Z,130.95
2019-02-05T08:38:43.034Z,134.75
2019-02-05T08:41:12.338Z,135.30
2019-02-05T08:43:41.616Z,143.15
2019-02-05T08:46:12.166Z,132.43
2019-02-05T08:48:42.600Z,135.55
2019-02-05T08:51:12.238Z,131.70
2019-02-05T08:53:41.532Z,133.10
2019-02-05T08:56:10.861Z,140.20
2019-02-05T08:58:41.252Z,141.62
2019-02-05T09:01:10.515Z,131.05
2019-02-05T09:03:39.967Z,133.50
2019-02-05T09:06:09.326Z,132.60
2019-02-05T09:08:38.697Z,140.28
2019-02-05T09:11:07.987Z,137.07
2019-02-05T09:13:37.260Z,129.85
2019-02-05T09:16:06.537Z,131.07
2019-02-05T09:18:36.907Z,143.10
2019-02-05T09:21:06.177Z,132.55
2019-02-05T09:23:35.880Z,151.15
2019-02-05T09:26:05.816Z,137.22
2019-02-05T09:28:35.081Z,129.72
2019-02-05T09:31:04.404Z,145.35
2019-02-05T09:33:33.689Z,141.15
2019-02-05T09:36:04.621Z,133.95
2019-02-05T09:38:33.910Z,133.18
2019-02-05T09:41:03.191Z,137.88
2019-02-05T09:43:32.535Z,131.93
2019-02-05T09:46:01.837Z,145.40
2019-02-05T09:48:31.210Z,135.15
2019-02-05T09:51:00.523Z,130.12
2019-02-05T09:53:29.809Z,123.75
2019-02-05T09:55:59.467Z,112.28
2019-02-05T09:58:28.774Z,117.00
2019-02-05T10:00:59.755Z,116.65
2019-02-05T10:03:28.948Z,124.93
2019-02-05T10:05:58.305Z,117.45
2019-02-05T10:08:27.569Z,125.78
2019-02-05T10:10:56.862Z,116.25
2019-02-05T10:13:26.179Z,116.57
2019-02-05T10:15:55.490Z,124.30
2019-02-05T10:18:24.768Z,125.58
2019-02-05T10:20:57.002Z,113.40
2019-02-05T10:25:54.871Z,111.45
2019-02-05T10:28:24.562Z,106.43
2019-02-05T10:30:53.937Z,117.90
2019-02-05T10:33:23.210Z,119.50
2019-02-05T10:35:52.490Z,112.50
2019-02-05T10:38:21.810Z,119.50
2019-02-05T10:40:53.622Z,117.85
2019-02-05T10:43:22.923Z,129.63
2019-02-05T10:45:52.223Z,119.97
2019-02-05T10:48:23.164Z,133.35
2019-02-05T10:50:52.438Z,127.17
2019-02-05T10:53:21.740Z,133.50
2019-02-05T10:55:51.090Z,132.40
2019-02-05T10:58:20.370Z,127.97
2019-02-05T11:00:50.076Z,138.92
2019-02-05T11:03:19.402Z,139.72
2019-02-05T11:05:48.676Z,122.58
2019-02-05T11:08:19.220Z,139.73
2019-02-05T11:10:48.452Z,126.40
2019-02-05T11:13:18.903Z,129.85
2019-02-05T11:15:48.515Z,136.85
2019-02-05T11:18:17.809Z,124.75
2019-02-05T11:20:48.151Z,123.70
2019-02-05T11:23:20.188Z,128.30
2019-02-05T11:25:49.619Z,123.85
2019-02-05T11:28:19.991Z,110.78
2019-02-05T11:30:49.292Z,110.05
2019-02-05T11:33:18.567Z,114.55
2019-02-05T11:35:47.864Z,104.60
2019-02-05T11:38:17.141Z,111.15
2019-02-05T11:40:46.507Z,111.92
2019-02-05T11:43:15.779Z,103.53
2019-02-05T11:45:45.075Z,107.83
2019-02-05T11:48:15.810Z,108.00
2019-02-05T11:50:45.110Z,102.17
2019-02-05T11:53:18.717Z,97.88
2019-02-05T11:55:47.954Z,103.97
2019-02-05T11:58:20.162Z,101.67
2019-02-05T12:00:51.080Z,110.65
2019-02-05T12:03:21.373Z,113.10
2019-02-05T12:05:53.640Z,104.43
2019-02-05T12:08:22.915Z,109.85
2019-02-05T12:10:52.223Z,105.47
2019-02-05T12:13:21.484Z,101.12
2019-02-05T12:15:50.760Z,107.07
2019-02-05T12:18:20.254Z,99.95
2019-02-05T12:20:49.551Z,100.78
2019-02-05T12:23:18.830Z,100.02
2019-02-05T12:25:48.120Z,102.87
2019-02-05T12:28:17.392Z,109.23
2019-02-05T12:30:46.745Z,106.60
2019-02-05T12:33:16.086Z,110.15
2019-02-05T12:35:45.797Z,100.97
2019-02-05T12:38:15.157Z,92.33
2019-02-05T12:40:44.513Z,95.70
2019-02-05T12:43:13.794Z,92.30
2019-02-05T12:45:47.390Z,81.17
2019-02-05T12:48:16.700Z,83.10
2019-02-05T12:50:46.329Z,76.77
2019-02-05T12:53:15.629Z,86.17
2019-02-05T12:55:44.909Z,98.60
2019-02-05T12:58:14.310Z,112.00
2019-02-05T13:00:56.640Z,114.15
2019-02-05T13:03:18.496Z,121.43
2019-02-05T13:05:48.056Z,113.75
2019-02-05T13:08:17.446Z,116.62
2019-02-05T13:10:49.088Z,121.97
2019-02-05T13:13:19.978Z,101.65
2019-02-05T13:15:52.638Z,105.80
2019-02-05T13:18:22.017Z,111.33
2019-02-05T13:20:51.381Z,93.75
2019-02-05T13:23:20.662Z,95.97
2019-02-05T13:25:49.997Z,91.85
2019-02-05T13:28:19.424Z,86.40
2019-02-05T13:30:51.557Z,84.47
2019-02-05T13:33:20.854Z,86.02
2019-02-05T13:35:50.112Z,81.40
2019-02-05T13:38:19.388Z,76.65
2019-02-05T13:40:50.409Z,83.37
2019-02-05T13:43:19.890Z,69.87
2019-02-05T13:45:49.206Z,58.90
2019-02-05T13:48:18.467Z,66.65
2019-02-05T13:50:47.759Z,70.15
2019-02-05T13:53:19.977Z,77.70
2019-02-05T13:55:49.178Z,65.25
2019-02-05T13:58:18.475Z,66.15
2019-02-05T14:00:50.281Z,72.72
2019-02-05T14:05:48.237Z,77.67
2019-02-05T14:08:17.555Z,74.93
2019-02-05T14:10:47.499Z,82.90
2019-02-05T14:13:16.819Z,83.78
2019-02-05T14:15:48.680Z,81.30
2019-02-05T14:18:18.115Z,83.95
2019-02-05T14:20:47.450Z,83.12
2019-02-05T14:23:16.685Z,82.45
2019-02-05T14:25:45.966Z,76.17
2019-02-05T14:28:15.244Z,74.27
2019-02-05T14:30:50.749Z,89.10
2019-02-05T14:33:21.826Z,78.42
2019-02-05T14:35:52.372Z,84.90
2019-02-05T14:38:23.090Z,83.55
2019-02-05T14:40:52.353Z,86.80
2019-02-05T14:43:21.661Z,81.53
2019-02-05T14:45:52.016Z,83.87
2019-02-05T14:48:30.524Z,84.90
2019-02-05T14:51:00.987Z,88.82
2019-02-05T14:53:30.302Z,87.27
2019-02-05T14:55:59.587Z,86.15
2019-02-05T14:58:28.937Z,73.02
2019-02-05T15:00:58.285Z,79.40
2019-02-05T15:03:27.648Z,78.90
2019-02-05T15:05:56.932Z,75.28
2019-02-05T15:08:26.281Z,72.50
2019-02-05T15:10:55.959Z,62.73
2019-02-05T15:13:26.878Z,65.07
2019-02-05T15:15:56.167Z,59.03
2019-02-05T15:18:25.470Z,61.00
2019-02-05T15:20:56.434Z,63.78
2019-02-05T15:23:25.790Z,60.88
2019-02-05T15:25:56.542Z,61.73
2019-02-05T15:28:26.892Z,67.65
2019-02-05T15:30:56.265Z,59.42
2019-02-05T15:33:42.290Z,58.87
2019-02-05T15:36:22.111Z,52.78
2019-02-05T15:38:54.114Z,52.38
2019-02-05T15:41:23.438Z,50.33
2019-02-05T15:43:52.718Z,57.58
2019-02-05T15:46:22.048Z,61.85
2019-02-05T15:48:51.641Z,57.27
2019-02-05T15:51:20.890Z,54.80
2019-02-05T15:53:50.196Z,55.98
2019-02-05T15:56:19.467Z,53.35
2019-02-05T15:58:48.769Z,57.20
2019-02-05T16:01:18.106Z,48.02
2019-02-05T16:03:47.691Z,57.05
2019-02-05T16:06:16.977Z,56.30
2019-02-05T16:08:46.242Z,52.60
2019-02-05T16:11:17.323Z,54.93
2019-02-05T16:13:46.623Z,49.40
2019-02-05T16:16:24.923Z,50.38
2019-02-05T16:18:54.263Z,57.35
2019-02-05T16:21:26.309Z,57.25
2019-02-05T16:23:58.096Z,52.35
2019-02-05T16:26:26.497Z,64.17
2019-02-05T16:28:55.786Z,59.60
2019-02-05T16:31:27.831Z,56.00
2019-02-05T16:33:56.208Z,52.30
2019-02-05T16:36:25.978Z,57.48
2019-02-05T16:38:55.360Z,50.03
2019-02-05T16:41:24.681Z,47.13
2019-02-05T16:43:54.086Z,53.33
2019-02-05T16:46:23.655Z,45.88
2019-02-05T16:48:52.940Z,46.08
2019-02-05T16:51:22.161Z,44.77
2019-02-05T16:53:51.510Z,42.88
2019-02-05T16:56:20.805Z,44.75
2019-02-05T16:58:50.120Z,43.48
2019-02-05T17:01:19.686Z,45.88
2019-02-05T17:03:49.130Z,43.28
2019-02-05T17:06:18.406Z,43.68
2019-02-05T17:08:47.672Z,43.98
2019-02-05T17:11:16.990Z,38.70
2019-02-05T17:13:51.358Z,41.10
2019-02-05T17:16:24.086Z,44.75
2019-02-05T17:18:55.044Z,42.20
2019-02-05T17:23:55.947Z,37.70
2019-02-05T17:26:25.424Z,37.95
2019-02-05T17:28:56.625Z,40.83
2019-02-05T17:31:28.028Z,38.87
2019-02-05T17:36:25.932Z,44.20
2019-02-05T17:38:57.124Z,41.23
2019-02-05T17:41:26.407Z,43.25
2019-02-05T17:43:55.713Z,43.55
2019-02-05T17:46:25.116Z,44.98
2019-02-05T17:48:54.685Z,42.88
2019-02-05T17:51:24.054Z,44.53
2019-02-05T17:53:53.357Z,48.83
2019-02-05T17:56:22.624Z,45.55
2019-02-05T17:58:51.884Z,48.63
2019-02-05T18:01:21.192Z,43.17
2019-02-05T18:03:50.481Z,46.95
2019-02-05T18:06:20.365Z,46.05
2019-02-05T18:08:49.686Z,48.48
2019-02-05T18:11:19.193Z,44.73
2019-02-05T18:13:48.577Z,45.38
2019-02-05T18:16:17.876Z,39.18
2019-02-05T18:18:47.243Z,43.05
2019-02-05T18:21:16.524Z,42.05
2019-02-05T18:23:46.061Z,39.98
2019-02-05T18:26:15.436Z,39.08
2019-02-05T18:28:44.742Z,47.30
2019-02-05T18:31:13.998Z,37.93
2019-02-05T18:33:43.387Z,41.88
2019-02-05T18:36:12.672Z,45.47
2019-02-05T18:38:41.959Z,40.88
2019-02-05T18:41:11.252Z,46.10
2019-02-05T18:43:40.705Z,43.98
2019-02-05T18:46:12.838Z,44.56
2019-02-05T18:48:41.883Z,46.42
2019-02-05T18:51:11.249Z,43.23
2019-02-05T18:53:40.510Z,47.50
2019-02-05T18:56:10.012Z,48.75
2019-02-05T18:58:39.358Z,42.03
2019-02-05T19:01:08.736Z,46.65
2019-02-05T19:03:38.023Z,43.87
2019-02-05T19:06:07.333Z,47.55
2019-02-05T19:08:36.723Z,48.80
2019-02-05T19:11:06.038Z,47.25
2019-02-05T19:13:35.333Z,50.17
2019-02-05T19:16:06.226Z,46.03
2019-02-05T19:18:35.541Z,46.13
2019-02-05T19:21:05.474Z,50.96
2019-02-05T19:23:37.624Z,51.77
2019-02-05T19:26:09.853Z,51.30
2019-02-05T19:28:39.238Z,55.57
2019-02-05T19:31:11.070Z,57.67
2019-02-05T19:33:40.366Z,50.00
2019-02-05T19:36:09.721Z,49.46
2019-02-05T19:38:39.071Z,51.13
2019-02-05T19:41:08.439Z,57.88
2019-02-05T19:43:37.724Z,51.37
2019-02-05T19:46:08.846Z,44.50
2019-02-05T19:48:45.959Z,45.38
2019-02-05T19:51:18.165Z,51.42
2019-02-05T19:53:48.426Z,48.10
2019-02-05T19:56:17.721Z,54.00
2019-02-05T19:58:46.995Z,51.10
2019-02-05T20:01:18.507Z,46.95
2019-02-05T20:03:47.270Z,52.10
2019-02-05T20:06:16.605Z,51.15
2019-02-05T20:08:45.902Z,47.55
2019-02-05T20:11:17.224Z,50.92
2019-02-05T20:13:53.139Z,49.18
2019-02-05T20:16:22.612Z,49.27
2019-02-05T20:18:51.844Z,50.25
2019-02-05T20:21:22.755Z,50.53
2019-02-05T20:23:53.694Z,48.77
2019-02-05T20:26:25.794Z,56.67
2019-02-05T20:28:58.814Z,45.30
2019-02-05T20:31:28.499Z,52.88
2019-02-05T20:33:57.961Z,45.98
2019-02-05T20:36:27.339Z,49.42
2019-02-05T20:38:58.425Z,53.05
2019-02-05T20:41:27.783Z,45.10
2019-02-05T20:43:57.105Z,46.90
2019-02-05T20:46:26.630Z,44.05
2019-02-05T20:48:55.917Z,45.70
2019-02-05T20:51:25.575Z,42.17
2019-02-05T20:54:01.748Z,41.33
2019-02-05T20:56:31.870Z,42.93
2019-02-05T20:59:04.268Z,46.35
2019-02-05T21:01:38.090Z,39.25
2019-02-05T21:04:10.654Z,43.63
2019-02-05T21:06:41.143Z,49.33
2019-02-05T21:09:14.463Z,41.83
2019-02-05T21:11:44.003Z,51.85
2019-02-05T21:14:13.287Z,44.00
2019-02-05T21:16:42.634Z,46.40
2019-02-05T21:19:11.907Z,44.27
2019-02-05T21:21:41.178Z,47.13
2019-02-05T21:24:10.820Z,46.80
2019-02-05T21:26:47.882Z,42.55
2019-02-05T21:29:17.275Z,42.83
2019-02-05T21:31:48.210Z,45.20
2019-02-05T21:34:17.498Z,42.03
2019-02-05T21:36:46.819Z,45.85
2019-02-05T21:39:16.111Z,45.17
2019-02-05T21:41:45.375Z,47.13
2019-02-05T21:44:16.630Z,46.58
2019-02-05T21:46:46.549Z,45.60
2019-02-05T21:49:15.834Z,41.88
2019-02-05T21:51:45.153Z,38.98
2019-02-05T21:54:14.473Z,46.18
2019-02-05T21:56:43.796Z,41.35
2019-02-05T21:59:18.053Z,44.05
2019-02-05T22:01:47.378Z,41.98
2019-02-05T22:04:26.658Z,43.30
2019-02-05T22:06:49.241Z,37.03
2019-02-05T22:09:29.686Z,38.73
2019-02-05T22:12:02.013Z,33.98
2019-02-05T22:14:31.356Z,34.90
2019-02-05T22:17:10.001Z,34.58
2019-02-05T22:19:39.299Z,30.85
2019-02-05T22:22:08.701Z,32.13
2019-02-05T22:24:37.962Z,30.00
2019-02-05T22:27:07.708Z,31.27
2019-02-05T22:29:37.010Z,29.20
2019-02-05T22:32:07.561Z,30.20
2019-02-05T22:34:43.059Z,25.05
2019-02-05T22:37:12.354Z,27.82
2019-02-05T22:39:42.069Z,29.18
2019-02-05T22:42:12.860Z,31.65
2019-02-05T22:44:42.428Z,31.13
2019-02-05T22:47:11.781Z,22.67
2019-02-05T22:49:41.057Z,25.55
2019-02-05T22:52:10.362Z,31.16
2019-02-05T22:54:39.624Z,27.60
2019-02-05T22:57:08.902Z,27.05
2019-02-05T22:59:38.488Z,26.65
2019-02-05T23:02:07.772Z,23.50
2019-02-05T23:04:37.965Z,23.15
2019-02-05T23:07:10.177Z,19.27
2019-02-05T23:09:42.737Z,25.05
2019-02-05T23:12:15.193Z,24.82
2019-02-05T23:14:47.992Z,23.07
2019-02-05T23:17:17.254Z,23.15
2019-02-05T23:19:46.553Z,19.17
2019-02-05T23:22:15.898Z,21.63
2019-02-05T23:24:45.157Z,22.85
2019-02-05T23:27:14.476Z,21.00
2019-02-05T23:29:44.133Z,16.57
2019-02-05T23:32:13.452Z,19.52
2019-02-05T23:34:42.647Z,21.07
2019-02-05T23:37:11.907Z,19.37
2019-02-05T23:39:41.088Z,17.00
2019-02-05T23:42:10.332Z,20.26
2019-02-05T23:44:40.017Z,17.42
2019-02-05T23:47:10.961Z,19.27
2019-02-05T23:49:40.581Z,19.07
2019-02-05T23:52:09.934Z,19.92
2019-02-05T23:54:39.192Z,23.75
2019-02-05T23:57:09.991Z,28.25
2019-02-05T23:59:39.526Z,16.48
